sensor_id;sensor_type;location;lat;lon;timestamp;P1;durP1;ratioP1;P2;durP2;ratioP2
15669;SDS011;18524;45.190;5.732;2024-03-22T00:01:44;6.50;;;3.00;;
15669;SDS011;18524;45.190;5.732;2024-03-22T00:06:35;4.30;;;3.00;;
15669;SDS011;18524;45.190;5.732;2024-03-22T00:11:26;5.27;;;3.00;;
15669;SDS011;18524;45.190;5.732;2024-03-22T00:16:16;3.40;;;3.03;;
15669;SDS011;18524;45.190;5.732;2024-03-22T00:21:06;3.97;;;3.10;;
15669;SDS011;18524;45.190;5.732;2024-03-22T00:25:57;5.43;;;3.20;;
15669;SDS011;18524;45.190;5.732;2024-03-22T00:30:47;6.23;;;3.50;;
15669;SDS011;18524;45.190;5.732;2024-03-22T00:35:37;4.67;;;3.27;;
15669;SDS011;18524;45.190;5.732;2024-03-22T00:40:28;5.40;;;3.27;;
15669;SDS011;18524;45.190;5.732;2024-03-22T00:45:18;5.83;;;3.73;;
15669;SDS011;18524;45.190;5.732;2024-03-22T00:50:09;4.67;;;3.43;;
15669;SDS011;18524;45.190;5.732;2024-03-22T00:54:59;7.47;;;3.27;;
15669;SDS011;18524;45.190;5.732;2024-03-22T00:59:50;5.70;;;3.60;;
15669;SDS011;18524;45.190;5.732;2024-03-22T01:04:40;4.37;;;3.17;;
15669;SDS011;18524;45.190;5.732;2024-03-22T01:09:31;6.70;;;3.43;;
15669;SDS011;18524;45.190;5.732;2024-03-22T01:14:21;4.83;;;3.20;;
15669;SDS011;18524;45.190;5.732;2024-03-22T01:19:12;8.07;;;3.37;;
15669;SDS011;18524;45.190;5.732;2024-03-22T01:24:02;5.17;;;3.30;;
15669;SDS011;18524;45.190;5.732;2024-03-22T01:28:53;5.90;;;3.87;;
15669;SDS011;18524;45.190;5.732;2024-03-22T01:33:43;6.27;;;4.33;;
15669;SDS011;18524;45.190;5.732;2024-03-22T01:38:33;8.40;;;4.20;;
15669;SDS011;18524;45.190;5.732;2024-03-22T01:43:24;5.13;;;4.00;;
15669;SDS011;18524;45.190;5.732;2024-03-22T01:48:14;4.77;;;3.70;;
15669;SDS011;18524;45.190;5.732;2024-03-22T01:53:05;7.00;;;4.47;;
15669;SDS011;18524;45.190;5.732;2024-03-22T01:57:55;5.20;;;4.00;;
15669;SDS011;18524;45.190;5.732;2024-03-22T02:02:46;5.77;;;3.73;;
15669;SDS011;18524;45.190;5.732;2024-03-22T02:07:37;5.90;;;3.67;;
15669;SDS011;18524;45.190;5.732;2024-03-22T02:12:27;4.57;;;3.60;;
15669;SDS011;18524;45.190;5.732;2024-03-22T02:17:17;4.33;;;3.73;;
15669;SDS011;18524;45.190;5.732;2024-03-22T02:22:08;5.00;;;3.70;;
15669;SDS011;18524;45.190;5.732;2024-03-22T02:26:58;5.30;;;3.60;;
15669;SDS011;18524;45.190;5.732;2024-03-22T02:31:48;6.93;;;4.20;;
15669;SDS011;18524;45.190;5.732;2024-03-22T02:36:39;7.83;;;4.50;;
15669;SDS011;18524;45.190;5.732;2024-03-22T02:41:29;4.50;;;3.87;;
15669;SDS011;18524;45.190;5.732;2024-03-22T02:46:20;4.40;;;4.00;;
15669;SDS011;18524;45.190;5.732;2024-03-22T02:51:10;5.67;;;3.83;;
15669;SDS011;18524;45.190;5.732;2024-03-22T02:56:00;5.20;;;3.90;;
15669;SDS011;18524;45.190;5.732;2024-03-22T03:00:51;4.60;;;4.20;;
15669;SDS011;18524;45.190;5.732;2024-03-22T03:05:42;6.30;;;4.37;;
15669;SDS011;18524;45.190;5.732;2024-03-22T03:10:32;4.93;;;4.00;;
15669;SDS011;18524;45.190;5.732;2024-03-22T03:15:22;4.83;;;3.90;;
15669;SDS011;18524;45.190;5.732;2024-03-22T03:20:13;5.93;;;3.90;;
15669;SDS011;18524;45.190;5.732;2024-03-22T03:25:03;6.90;;;3.90;;
15669;SDS011;18524;45.190;5.732;2024-03-22T03:29:54;6.77;;;3.83;;
15669;SDS011;18524;45.190;5.732;2024-03-22T03:34:45;7.93;;;4.00;;
15669;SDS011;18524;45.190;5.732;2024-03-22T03:39:35;5.23;;;3.80;;
15669;SDS011;18524;45.190;5.732;2024-03-22T03:44:25;5.03;;;4.10;;
15669;SDS011;18524;45.190;5.732;2024-03-22T03:49:16;6.27;;;4.33;;
15669;SDS011;18524;45.190;5.732;2024-03-22T03:54:06;6.30;;;4.10;;
15669;SDS011;18524;45.190;5.732;2024-03-22T03:58:56;5.90;;;3.77;;
15669;SDS011;18524;45.190;5.732;2024-03-22T04:03:48;6.03;;;3.93;;
15669;SDS011;18524;45.190;5.732;2024-03-22T04:08:38;6.10;;;4.10;;
15669;SDS011;18524;45.190;5.732;2024-03-22T04:13:29;5.80;;;3.67;;
15669;SDS011;18524;45.190;5.732;2024-03-22T04:18:19;4.17;;;3.60;;
15669;SDS011;18524;45.190;5.732;2024-03-22T04:23:10;6.30;;;3.63;;
15669;SDS011;18524;45.190;5.732;2024-03-22T04:28:00;5.60;;;3.77;;
15669;SDS011;18524;45.190;5.732;2024-03-22T04:32:50;5.33;;;3.97;;
15669;SDS011;18524;45.190;5.732;2024-03-22T04:37:41;8.13;;;4.07;;
15669;SDS011;18524;45.190;5.732;2024-03-22T04:42:31;5.23;;;3.67;;
15669;SDS011;18524;45.190;5.732;2024-03-22T04:47:22;4.67;;;3.90;;
15669;SDS011;18524;45.190;5.732;2024-03-22T04:52:12;4.93;;;4.20;;
15669;SDS011;18524;45.190;5.732;2024-03-22T04:57:02;5.10;;;3.87;;
15669;SDS011;18524;45.190;5.732;2024-03-22T05:01:53;5.50;;;4.07;;
15669;SDS011;18524;45.190;5.732;2024-03-22T05:06:43;5.10;;;4.33;;
15669;SDS011;18524;45.190;5.732;2024-03-22T05:11:34;6.60;;;4.30;;
15669;SDS011;18524;45.190;5.732;2024-03-22T05:16:24;7.30;;;4.20;;
15669;SDS011;18524;45.190;5.732;2024-03-22T05:21:14;6.97;;;4.10;;
15669;SDS011;18524;45.190;5.732;2024-03-22T05:26:04;5.93;;;4.43;;
15669;SDS011;18524;45.190;5.732;2024-03-22T05:30:55;5.73;;;4.27;;
15669;SDS011;18524;45.190;5.732;2024-03-22T05:35:45;6.73;;;4.90;;
15669;SDS011;18524;45.190;5.732;2024-03-22T05:40:36;5.73;;;4.47;;
15669;SDS011;18524;45.190;5.732;2024-03-22T05:45:29;6.60;;;4.67;;
15669;SDS011;18524;45.190;5.732;2024-03-22T05:50:20;5.90;;;4.27;;
15669;SDS011;18524;45.190;5.732;2024-03-22T05:55:10;5.60;;;3.97;;
15669;SDS011;18524;45.190;5.732;2024-03-22T06:00:01;6.47;;;4.93;;
15669;SDS011;18524;45.190;5.732;2024-03-22T06:04:52;6.53;;;4.60;;
15669;SDS011;18524;45.190;5.732;2024-03-22T06:09:42;7.20;;;4.73;;
15669;SDS011;18524;45.190;5.732;2024-03-22T06:14:39;6.97;;;5.07;;
15669;SDS011;18524;45.190;5.732;2024-03-22T06:19:30;5.60;;;4.33;;
15669;SDS011;18524;45.190;5.732;2024-03-22T06:24:21;5.23;;;4.40;;
15669;SDS011;18524;45.190;5.732;2024-03-22T06:29:11;7.07;;;4.50;;
15669;SDS011;18524;45.190;5.732;2024-03-22T06:34:02;6.47;;;4.70;;
15669;SDS011;18524;45.190;5.732;2024-03-22T06:38:52;5.97;;;4.43;;
15669;SDS011;18524;45.190;5.732;2024-03-22T06:43:43;7.73;;;4.90;;
15669;SDS011;18524;45.190;5.732;2024-03-22T06:48:33;6.80;;;4.83;;
15669;SDS011;18524;45.190;5.732;2024-03-22T07:27:33;5.63;;;4.73;;
15669;SDS011;18524;45.190;5.732;2024-03-22T07:32:23;7.13;;;4.50;;
15669;SDS011;18524;45.190;5.732;2024-03-22T07:37:14;6.97;;;4.20;;
15669;SDS011;18524;45.190;5.732;2024-03-22T07:42:04;7.17;;;4.80;;
15669;SDS011;18524;45.190;5.732;2024-03-22T07:46:55;7.83;;;4.50;;
15669;SDS011;18524;45.190;5.732;2024-03-22T07:51:45;7.37;;;4.30;;
15669;SDS011;18524;45.190;5.732;2024-03-22T07:56:35;6.93;;;4.73;;
15669;SDS011;18524;45.190;5.732;2024-03-22T08:01:26;9.73;;;5.50;;
15669;SDS011;18524;45.190;5.732;2024-03-22T08:06:16;9.17;;;5.30;;
15669;SDS011;18524;45.190;5.732;2024-03-22T08:11:07;7.30;;;4.90;;
15669;SDS011;18524;45.190;5.732;2024-03-22T08:15:59;7.60;;;5.27;;
15669;SDS011;18524;45.190;5.732;2024-03-22T08:20:49;8.77;;;4.77;;
